Time;durP1;ratioP1;P1;durP2;ratioP2;P2;SDS_P1;SDS_P2;PMS_P1;PMS_P2;Temp;Humidity;BMP_temperature;BMP_pressure;BME280_temperature;BME280_humidity;BME280_pressure;Samples;Min_cycle;Max_cycle;Signal;HPM_P1;HPM_P2
2023/01/14 00:01:09;;;;;;;3.07;1.60;;;9.00;99.90;;;;;;7394317;19;20143;-73
2023/01/14 00:03:35;;;;;;;5.27;1.37;;;9.10;99.90;;;;;;7389201;19;20145;-72
2023/01/14 00:06:01;;;;;;;2.50;1.20;;;9.10;99.90;;;;;;7387523;19;20161;-71
2023/01/14 00:08:30;;;;;;;4.00;1.30;;;9.10;99.90;;;;;;7393090;19;20484;-72
2023/01/14 00:10:59;;;;;;;4.30;1.30;;;9.00;99.90;;;;;;7393055;19;20573;-72
2023/01/14 00:13:25;;;;;;;3.80;1.40;;;9.10;99.90;;;;;;7392389;19;20141;-76
2023/01/14 00:15:53;;;;;;;2.90;1.20;;;9.00;99.90;;;;;;7394210;19;20543;-73
2023/01/14 00:18:20;;;;;;;2.97;1.20;;;9.10;99.90;;;;;;7395112;19;20135;-72
2023/01/14 00:21:05;;;;;;;3.27;1.40;;;9.10;99.90;;;;;;7393635;19;20141;-73
2023/01/14 00:23:32;;;;;;;4.10;1.53;;;9.00;99.90;;;;;;7392337;19;20599;-72
2023/01/14 00:26:10;;;;;;;3.80;1.57;;;9.00;99.90;;;;;;7392408;19;20163;-72
2023/01/14 00:28:36;;;;;;;5.23;1.70;;;9.00;99.90;;;;;;7394735;19;20135;-73
2023/01/14 00:31:11;;;;;;;6.03;3.17;;;9.00;99.90;;;;;;7393009;19;20544;-73
2023/01/14 00:33:37;;;;;;;6.07;2.73;;;9.00;99.90;;;;;;7390523;19;20245;-72
2023/01/14 00:36:05;;;;;;;6.57;1.80;;;9.00;99.90;;;;;;7392174;19;20140;-73
2023/01/14 00:38:31;;;;;;;4.43;2.10;;;9.00;99.90;;;;;;7394567;19;20140;-72
2023/01/14 00:41:07;;;;;;;6.27;1.73;;;8.90;99.90;;;;;;7395301;19;20486;-74
2023/01/14 00:43:35;;;;;;;3.93;1.60;;;8.90;99.90;;;;;;7393445;19;20143;-72
2023/01/14 00:46:01;;;;;;;5.37;1.60;;;8.80;99.90;;;;;;7391121;19;20167;-73
2023/01/14 00:48:26;;;;;;;5.53;1.50;;;8.90;99.90;;;;;;7387358;19;20150;-73
2023/01/14 00:50:52;;;;;;;4.83;1.37;;;8.80;99.90;;;;;;7393146;19;20599;-74
2023/01/14 00:53:18;;;;;;;4.23;1.73;;;8.90;99.90;;;;;;7391290;19;20143;-73
2023/01/14 00:55:44;;;;;;;4.17;1.27;;;8.90;99.90;;;;;;7393326;19;20222;-72
2023/01/14 00:58:10;;;;;;;8.63;1.73;;;8.90;99.90;;;;;;7392979;19;20134;-73
2023/01/14 01:00:36;;;;;;;4.40;1.57;;;8.90;99.90;;;;;;7390238;19;20142;-73
2023/01/14 01:03:02;;;;;;;4.90;1.60;;;8.90;99.90;;;;;;7392995;19;20470;-73
2023/01/14 01:05:28;;;;;;;5.63;1.63;;;8.90;99.90;;;;;;7394070;19;20135;-73
2023/01/14 01:07:53;;;;;;;4.53;1.47;;;8.90;99.90;;;;;;7390898;19;20218;-72
2023/01/14 01:10:19;;;;;;;7.10;1.53;;;8.80;99.90;;;;;;7391010;19;20129;-73
2023/01/14 01:12:45;;;;;;;2.63;1.53;;;8.80;99.90;;;;;;7394652;19;20231;-72
2023/01/14 01:15:10;;;;;;;3.30;1.30;;;8.80;99.90;;;;;;7393244;19;20139;-73
2023/01/14 01:17:36;;;;;;;2.40;1.27;;;8.80;99.90;;;;;;7391071;19;20165;-72
2023/01/14 01:20:02;;;;;;;2.87;1.57;;;8.80;99.90;;;;;;7391984;19;20134;-72
2023/01/14 01:22:30;;;;;;;2.87;1.37;;;8.90;99.90;;;;;;7393324;19;20138;-72
2023/01/14 01:24:56;;;;;;;4.87;1.43;;;8.80;99.90;;;;;;7388309;19;20131;-73
2023/01/14 01:27:22;;;;;;;4.77;1.60;;;8.80;99.90;;;;;;7392928;19;20200;-73
2023/01/14 01:29:48;;;;;;;6.63;1.60;;;8.70;99.90;;;;;;7393071;19;20598;-72
2023/01/14 01:32:13;;;;;;;6.73;1.50;;;8.70;99.90;;;;;;7393115;19;20599;-73
2023/01/14 01:34:39;;;;;;;3.83;1.40;;;8.80;99.90;;;;;;7392257;19;20127;-73
2023/01/14 01:37:05;;;;;;;5.80;1.50;;;8.80;99.90;;;;;;7395769;19;20713;-73
2023/01/14 01:39:31;;;;;;;4.73;1.90;;;8.70;99.90;;;;;;7394824;19;20130;-73
2023/01/14 01:41:56;;;;;;;9.00;1.73;;;8.50;99.90;;;;;;7386758;19;20139;-74
2023/01/14 01:44:22;;;;;;;4.57;1.30;;;8.30;99.90;;;;;;7390679;19;20151;-72
2023/01/14 01:46:48;;;;;;;6.80;1.30;;;8.20;99.90;;;;;;7391310;19;20575;-73
2023/01/14 01:49:44;;;;;;;4.77;1.50;;;8.00;99.90;;;;;;7390234;19;20139;-73
2023/01/14 01:52:29;;;;;;;3.53;1.37;;;8.30;99.90;;;;;;7384586;19;20160;-73
2023/01/14 01:55:00;;;;;;;3.30;1.20;;;8.30;99.90;;;;;;7393354;19;20145;-72
2023/01/14 01:57:26;;;;;;;3.70;1.20;;;7.80;99.90;;;;;;7389850;19;20139;-72
2023/01/14 02:00:03;;;;;;;3.50;1.00;;;7.90;99.90;;;;;;7390829;19;20507;-72
2023/01/14 02:02:29;;;;;;;7.47;1.73;;;7.80;99.90;;;;;;7381296;19;20677;-73
2023/01/14 02:04:55;;;;;;;6.53;1.43;;;8.00;99.90;;;;;;7391789;19;20137;-72
2023/01/14 02:07:23;;;;;;;6.80;1.77;;;8.10;99.90;;;;;;7387459;19;20135;-72
2023/01/14 02:09:56;;;;;;;4.23;1.30;;;8.20;99.90;;;;;;7389749;19;20151;-72
2023/01/14 02:12:51;;;;;;;3.33;1.23;;;8.30;99.90;;;;;;7392058;19;20471;-72
2023/01/14 02:15:38;;;;;;;5.20;1.40;;;8.40;99.90;;;;;;7392818;19;20160;-72
2023/01/14 02:18:16;;;;;;;2.90;1.40;;;8.20;99.90;;;;;;7389169;19;20150;-72
2023/01/14 02:21:04;;;;;;;4.87;1.37;;;8.30;99.90;;;;;;7391665;19;20134;-72
2023/01/14 02:23:58;;;;;;;3.87;1.47;;;8.30;99.90;;;;;;7391863;19;20513;-73
2023/01/14 02:27:11;;;;;;;2.97;1.20;;;8.50;99.90;;;;;;7391123;19;20138;-72
2023/01/14 02:29:58;;;;;;;6.00;1.50;;;8.40;99.90;;;;;;7385801;19;20142;-72
2023/01/14 02:32:32;;;;;;;7.47;1.80;;;8.50;99.90;;;;;;7382657;19;20130;-72
2023/01/14 02:35:23;;;;;;;5.43;1.43;;;8.40;99.90;;;;;;7384884;19;20168;-73
2023/01/14 02:38:13;;;;;;;4.30;1.20;;;8.40;99.90;;;;;;7390944;19;20138;-73
2023/01/14 02:40:47;;;;;;;3.33;1.30;;;8.30;99.90;;;;;;7384501;19;20190;-73
2023/01/14 02:46:36;;;;;;;4.20;1.37;;;8.50;99.90;;;;;;7388678;19;20173;-73
2023/01/14 02:49:06;;;;;;;7.13;1.57;;;8.30;99.90;;;;;;7390425;19;20135;-72
2023/01/14 02:51:34;;;;;;;3.13;1.30;;;8.40;99.90;;;;;;7386702;19;20577;-71
2023/01/14 02:53:59;;;;;;;3.30;1.10;;;8.40;99.90;;;;;;7390338;19;20591;-71
2023/01/14 02:56:26;;;;;;;6.43;1.90;;;8.50;99.90;;;;;;7391175;19;20145;-73
2023/01/14 02:59:31;;;;;;;2.70;1.40;;;8.50;99.90;;;;;;7389161;19;20146;-74
2023/01/14 03:02:19;;;;;;;5.40;1.43;;;8.50;99.90;;;;;;7388315;19;20158;-73
2023/01/14 03:04:57;;;;;;;3.43;1.17;;;8.40;99.90;;;;;;7391016;19;20455;-72
2023/01/14 03:07:38;;;;;;;6.63;1.13;;;8.50;99.90;;;;;;7387167;19;20135;-72
2023/01/14 03:10:07;;;;;;;3.40;1.20;;;8.50;99.90;;;;;;7394180;19;20574;-73
2023/01/14 03:12:43;;;;;;;2.97;1.10;;;8.50;99.90;;;;;;7394941;19;20135;-72
2023/01/14 03:15:16;;;;;;;3.50;1.43;;;8.50;99.90;;;;;;7396261;19;20602;-73
2023/01/14 03:17:54;;;;;;;2.57;0.97;;;8.50;99.90;;;;;;7397370;19;20496;-71
2023/01/14 03:20:25;;;;;;;2.97;1.37;;;8.40;99.90;;;;;;7394568;19;20232;-72
2023/01/14 03:22:52;;;;;;;3.67;1.23;;;8.50;99.90;;;;;;7393421;19;20134;-72
2023/01/14 03:25:20;;;;;;;2.13;0.90;;;8.30;99.90;;;;;;7394161;19;20151;-73
2023/01/14 03:27:47;;;;;;;4.77;1.50;;;8.40;99.90;;;;;;7392490;19;20143;-73
2023/01/14 03:30:26;;;;;;;3.67;1.00;;;8.50;99.90;;;;;;7395043;19;20135;-71
2023/01/14 03:33:23;;;;;;;4.87;1.10;;;8.50;99.90;;;;;;7394127;19;20655;-73
2023/01/14 03:35:51;;;;;;;2.73;1.03;;;8.50;99.90;;;;;;7394769;19;20162;-71
2023/01/14 03:38:23;;;;;;;5.03;1.50;;;8.30;99.90;;;;;;7393391;19;20243;-72
2023/01/14 03:40:54;;;;;;;3.13;1.10;;;8.30;99.90;;;;;;7394278;19;20150;-71
2023/01/14 03:43:43;;;;;;;4.30;1.20;;;8.50;99.90;;;;;;7394975;19;20185;-73
2023/01/14 03:46:10;;;;;;;4.33;1.07;;;8.50;99.90;;;;;;7392438;19;20155;-72
2023/01/14 03:48:36;;;;;;;3.93;1.00;;;8.40;99.90;;;;;;7394093;19;20614;-73
2023/01/14 03:51:18;;;;;;;2.97;0.90;;;8.00;99.90;;;;;;7396285;19;20146;-73
2023/01/14 03:53:46;;;;;;;2.87;1.10;;;8.20;99.90;;;;;;7396631;19;20842;-72
2023/01/14 03:56:18;;;;;;;4.97;1.13;;;8.10;99.90;;;;;;7394318;19;20209;-73
2023/01/14 03:58:58;;;;;;;3.77;1.07;;;7.90;99.90;;;;;;7392281;19;20131;-75
2023/01/14 04:01:48;;;;;;;4.30;1.27;;;8.20;99.90;;;;;;7387372;19;20148;-74
2023/01/14 04:04:14;;;;;;;4.47;1.20;;;8.10;99.90;;;;;;7393507;19;20221;-75
2023/01/14 04:06:40;;;;;;;1.63;0.77;;;8.30;99.90;;;;;;7392785;19;20159;-74
2023/01/14 04:09:08;;;;;;;4.37;1.40;;;8.00;99.90;;;;;;7393509;19;20162;-74
2023/01/14 04:11:34;;;;;;;2.57;1.10;;;8.10;99.90;;;;;;7395426;19;20155;-74
2023/01/14 04:16:45;;;;;;;5.60;1.00;;;8.30;99.90;;;;;;7394840;19;20139;-74
2023/01/14 04:19:11;;;;;;;4.83;1.10;;;8.10;99.90;;;;;;7393352;19;20150;-74
2023/01/14 04:21:37;;;;;;;2.57;1.00;;;8.20;99.90;;;;;;7393332;19;20178;-73
2023/01/14 04:24:03;;;;;;;3.43;0.90;;;8.40;99.90;;;;;;7393372;19;20138;-75
2023/01/14 04:26:28;;;;;;;3.87;0.70;;;8.30;99.90;;;;;;7390869;19;20619;-74
2023/01/14 04:28:55;;;;;;;3.87;1.10;;;8.40;99.90;;;;;;7392180;19;20182;-74
2023/01/14 04:31:21;;;;;;;4.73;1.00;;;8.20;99.90;;;;;;7393333;19;20504;-74
2023/01/14 04:33:47;;;;;;;1.53;0.70;;;8.30;99.90;;;;;;7393685;19;20194;-74
2023/01/14 04:36:12;;;;;;;5.97;1.00;;;8.30;99.90;;;;;;7392872;19;20143;-75
2023/01/14 04:38:38;;;;;;;3.17;1.40;;;8.50;99.90;;;;;;7393371;19;20598;-74
2023/01/14 04:41:04;;;;;;;1.87;1.00;;;8.50;99.90;;;;;;7389242;19;20599;-75
2023/01/14 04:43:30;;;;;;;2.57;0.93;;;8.40;99.90;;;;;;7391853;19;20557;-74
2023/01/14 04:45:56;;;;;;;2.97;1.03;;;8.40;99.90;;;;;;7390352;19;20818;-75
2023/01/14 04:48:24;;;;;;;3.07;0.90;;;8.30;99.90;;;;;;7392733;19;20139;-73
2023/01/14 04:50:50;;;;;;;2.50;1.00;;;8.30;99.90;;;;;;7391643;19;20221;-75
2023/01/14 04:53:19;;;;;;;2.70;1.00;;;8.40;99.90;;;;;;7394761;19;20213;-75
2023/01/14 04:55:45;;;;;;;6.37;1.80;;;8.50;99.90;;;;;;7392056;19;20150;-75
2023/01/14 04:58:14;;;;;;;4.57;1.30;;;8.40;99.90;;;;;;7392286;19;20178;-75
2023/01/14 05:00:41;;;;;;;4.50;1.37;;;8.50;99.90;;;;;;7393797;19;20135;-74
2023/01/14 05:03:09;;;;;;;5.27;1.00;;;8.40;99.90;;;;;;7391197;19;20150;-74
2023/01/14 05:05:35;;;;;;;1.80;1.00;;;8.40;99.90;;;;;;7392395;19;20139;-75
2023/01/14 05:08:03;;;;;;;1.10;0.80;;;8.50;99.90;;;;;;7391230;19;20160;-74
2023/01/14 05:10:29;;;;;;;4.53;1.10;;;8.50;99.90;;;;;;7392630;19;20139;-74
2023/01/14 05:12:58;;;;;;;4.57;1.10;;;8.50;99.90;;;;;;7391273;19;20131;-74
2023/01/14 05:15:33;;;;;;;5.30;0.97;;;8.50;99.90;;;;;;7392012;19;20142;-74
2023/01/14 05:17:59;;;;;;;5.07;1.03;;;8.60;99.90;;;;;;7391586;19;20163;-74
2023/01/14 05:20:26;;;;;;;4.13;1.43;;;8.50;99.90;;;;;;7393755;19;20142;-73
2023/01/14 05:22:57;;;;;;;3.13;1.00;;;8.50;99.90;;;;;;7391771;19;20139;-74
2023/01/14 05:25:23;;;;;;;2.23;0.87;;;8.50;99.90;;;;;;7387886;19;20146;-74
2023/01/14 05:27:49;;;;;;;3.53;1.10;;;8.40;99.90;;;;;;7391859;19;20143;-75
2023/01/14 05:30:15;;;;;;;1.57;0.70;;;8.40;99.90;;;;;;7392312;19;20641;-74
2023/01/14 05:32:41;;;;;;;4.00;0.90;;;8.40;99.90;;;;;;7387769;19;20469;-74
2023/01/14 05:35:07;;;;;;;3.37;0.97;;;8.30;99.90;;;;;;7390547;19;20604;-74
2023/01/14 05:37:33;;;;;;;4.07;1.00;;;8.40;99.90;;;;;;7391661;19;20139;-75
2023/01/14 05:40:00;;;;;;;4.47;1.00;;;8.30;99.90;;;;;;7391049;19;20134;-73
2023/01/14 05:47:55;;;;;;;4.40;0.90;;;8.30;99.90;;;;;;7387999;19;20169;-73
2023/01/14 05:50:21;;;;;;;3.97;1.07;;;8.20;99.90;;;;;;7390855;19;20622;-74
2023/01/14 05:52:47;;;;;;;2.83;0.70;;;8.20;99.90;;;;;;7389565;19;20146;-75
2023/01/14 05:55:13;;;;;;;2.43;1.03;;;8.30;99.90;;;;;;7392335;19;20571;-74
2023/01/14 05:57:38;;;;;;;1.67;0.90;;;8.30;99.90;;;;;;7392844;19;20131;-75
2023/01/14 06:00:05;;;;;;;1.77;0.83;;;8.30;99.90;;;;;;7388355;19;20131;-75
2023/01/14 06:08:03;;;;;;;6.20;1.20;;;8.00;99.90;;;;;;7388806;19;20594;-74
2023/01/14 06:10:29;;;;;;;3.00;1.20;;;8.20;99.90;;;;;;7391476;19;20137;-75
2023/01/14 06:12:58;;;;;;;5.30;1.33;;;8.20;99.90;;;;;;7390095;19;20190;-74
2023/01/14 06:15:33;;;;;;;3.90;1.00;;;8.30;99.90;;;;;;7390584;19;20229;-73
2023/01/14 06:18:13;;;;;;;5.20;1.07;;;8.30;99.90;;;;;;7389215;19;20131;-74
2023/01/14 06:20:39;;;;;;;3.07;0.63;;;8.20;99.90;;;;;;7392120;19;20194;-74
2023/01/14 06:23:06;;;;;;;2.00;1.10;;;8.20;99.90;;;;;;7388525;19;20645;-74
2023/01/14 06:25:33;;;;;;;2.53;1.10;;;8.20;99.90;;;;;;7389927;19;20138;-75
2023/01/14 06:28:02;;;;;;;1.80;1.00;;;8.20;99.90;;;;;;7386136;19;20662;-74
2023/01/14 06:30:28;;;;;;;4.57;1.10;;;8.10;99.90;;;;;;7389325;19;20543;-74
2023/01/14 06:32:55;;;;;;;3.40;1.53;;;7.80;99.90;;;;;;7391282;19;20147;-73
2023/01/14 06:35:22;;;;;;;1.93;1.10;;;7.80;99.90;;;;;;7391724;19;20487;-74
2023/01/14 06:37:48;;;;;;;2.80;1.03;;;7.80;99.90;;;;;;7392454;19;20139;-75
2023/01/14 06:40:14;;;;;;;2.40;1.33;;;7.80;99.90;;;;;;7391326;19;20142;-74
2023/01/14 06:42:40;;;;;;;5.10;1.07;;;7.30;99.90;;;;;;7389885;19;20148;-74
2023/01/14 06:45:11;;;;;;;6.83;1.40;;;7.60;99.90;;;;;;7386942;19;20175;-74
2023/01/14 06:47:37;;;;;;;5.47;1.23;;;7.80;99.90;;;;;;7387008;19;20151;-75
2023/01/14 06:50:04;;;;;;;2.03;1.03;;;8.00;99.90;;;;;;7389136;19;20138;-75
2023/01/14 06:52:30;;;;;;;2.63;1.00;;;8.10;99.90;;;;;;7389821;19;20134;-74
2023/01/14 06:54:55;;;;;;;1.70;0.80;;;8.20;99.90;;;;;;7387570;19;20151;-75
2023/01/14 06:57:22;;;;;;;1.90;1.23;;;8.00;99.90;;;;;;7388717;19;20498;-75
2023/01/14 06:59:48;;;;;;;2.43;1.07;;;8.10;99.90;;;;;;7391300;19;20150;-75
2023/01/14 07:02:14;;;;;;;3.67;1.63;;;8.10;99.90;;;;;;7389198;19;20126;-74
2023/01/14 07:04:39;;;;;;;2.90;0.90;;;8.10;99.90;;;;;;7388989;19;20134;-75
2023/01/14 07:07:06;;;;;;;1.67;0.70;;;7.90;99.90;;;;;;7380948;19;20145;-75
2023/01/14 07:09:32;;;;;;;4.23;1.20;;;7.90;99.90;;;;;;7389764;19;20145;-74
2023/01/14 07:11:58;;;;;;;3.50;1.20;;;7.80;99.90;;;;;;7391391;19;20615;-75
2023/01/14 07:14:25;;;;;;;5.63;1.30;;;7.90;99.90;;;;;;7387529;19;20145;-74
2023/01/14 07:16:51;;;;;;;9.63;1.70;;;7.80;99.90;;;;;;7387518;19;20146;-74
2023/01/14 07:19:16;;;;;;;3.37;1.13;;;8.00;99.90;;;;;;7387253;19;20150;-74
2023/01/14 07:21:42;;;;;;;4.93;1.30;;;8.20;99.90;;;;;;7389637;19;20150;-74
2023/01/14 07:24:08;;;;;;;3.47;1.20;;;8.20;99.90;;;;;;7387834;19;20158;-75
2023/01/14 07:26:34;;;;;;;3.87;1.20;;;8.20;99.90;;;;;;7386338;19;20494;-75
2023/01/14 07:28:59;;;;;;;3.90;1.33;;;8.10;99.90;;;;;;7387598;19;20135;-75
2023/01/14 07:31:25;;;;;;;4.77;1.20;;;7.80;99.90;;;;;;7384566;19;20146;-75
2023/01/14 07:33:51;;;;;;;3.57;1.30;;;7.70;99.90;;;;;;7387330;19;20483;-75
2023/01/14 07:36:16;;;;;;;3.30;1.20;;;7.80;99.90;;;;;;7388434;19;20666;-75
2023/01/14 07:38:42;;;;;;;4.77;1.00;;;8.00;99.90;;;;;;7386051;19;20131;-74
2023/01/14 07:41:12;;;;;;;4.50;1.17;;;8.20;99.90;;;;;;7386606;19;20143;-75
2023/01/14 07:43:38;;;;;;;7.17;1.37;;;8.40;99.90;;;;;;7384438;19;20210;-74
2023/01/14 07:46:06;;;;;;;4.10;1.37;;;8.40;99.90;;;;;;7385581;19;20172;-73
2023/01/14 07:48:32;;;;;;;2.87;1.20;;;8.30;99.90;;;;;;7383468;19;20138;-74
2023/01/14 07:50:58;;;;;;;3.60;1.50;;;8.50;99.90;;;;;;7384960;19;20159;-74
2023/01/14 07:53:23;;;;;;;6.90;1.10;;;8.40;99.90;;;;;;7382290;19;20218;-75
2023/01/14 07:55:49;;;;;;;4.57;1.33;;;7.80;99.90;;;;;;7391423;19;20143;-75
2023/01/14 07:58:16;;;;;;;3.07;1.47;;;7.80;99.90;;;;;;7394709;19;20127;-73
2023/01/14 08:00:42;;;;;;;2.50;1.20;;;8.10;99.90;;;;;;7390210;19;20131;-75
2023/01/14 08:03:08;;;;;;;4.67;1.57;;;8.40;99.90;;;;;;7390994;19;20149;-75
2023/01/14 08:05:34;;;;;;;3.13;1.20;;;8.00;99.90;;;;;;7394304;19;20127;-74
2023/01/14 08:08:00;;;;;;;4.23;1.20;;;8.30;99.90;;;;;;7390689;19;20465;-74
2023/01/14 08:10:25;;;;;;;5.63;1.53;;;8.40;99.90;;;;;;7392283;19;20131;-73
2023/01/14 08:12:51;;;;;;;3.07;1.37;;;8.50;99.90;;;;;;7392034;19;20197;-74
2023/01/14 08:15:18;;;;;;;4.40;1.43;;;8.60;99.90;;;;;;7390087;19;20621;-73
2023/01/14 08:17:44;;;;;;;4.40;1.27;;;8.60;99.90;;;;;;7391956;19;20177;-73
2023/01/14 08:20:11;;;;;;;4.17;1.33;;;8.80;99.90;;;;;;7392461;19;20296;-74
2023/01/14 08:22:37;;;;;;;3.37;1.10;;;8.80;99.90;;;;;;7397678;19;20161;-75
2023/01/14 08:25:04;;;;;;;6.57;1.47;;;8.70;99.90;;;;;;7395309;19;20192;-74
2023/01/14 08:27:30;;;;;;;5.40;1.63;;;8.70;99.90;;;;;;7394999;19;20661;-74
2023/01/14 08:29:56;;;;;;;5.90;1.30;;;8.80;99.90;;;;;;7396205;19;20135;-74
2023/01/14 08:32:23;;;;;;;4.80;1.23;;;9.00;99.90;;;;;;7395719;19;20236;-73
2023/01/14 08:34:49;;;;;;;7.00;2.00;;;9.00;99.90;;;;;;7393405;19;20139;-74
2023/01/14 08:37:15;;;;;;;4.67;1.10;;;9.10;99.90;;;;;;7396095;19;20167;-74
2023/01/14 08:39:42;;;;;;;3.20;1.27;;;9.10;99.90;;;;;;7394525;19;20231;-76
2023/01/14 08:42:07;;;;;;;7.77;1.43;;;9.20;99.90;;;;;;7388368;19;20127;-77
2023/01/14 08:44:33;;;;;;;4.60;1.40;;;9.20;99.90;;;;;;7387090;19;20587;-74
2023/01/14 08:46:59;;;;;;;7.43;1.60;;;9.20;99.90;;;;;;7389639;19;20141;-73
2023/01/14 08:49:25;;;;;;;3.53;1.13;;;9.10;99.90;;;;;;7384681;19;20170;-74
2023/01/14 08:51:50;;;;;;;5.40;1.50;;;9.20;99.90;;;;;;7387751;19;20147;-74
2023/01/14 08:54:16;;;;;;;6.17;1.90;;;9.20;99.90;;;;;;7389824;19;20577;-76
2023/01/14 08:56:42;;;;;;;4.07;1.53;;;9.20;99.90;;;;;;7391094;19;20141;-74
2023/01/14 08:59:10;;;;;;;3.13;1.20;;;9.40;99.90;;;;;;7392241;19;20160;-73
2023/01/14 09:01:35;;;;;;;6.57;1.27;;;9.20;99.90;;;;;;7393030;19;20520;-77
2023/01/14 09:04:01;;;;;;;3.20;1.13;;;9.20;99.90;;;;;;7389758;19;20154;-74
2023/01/14 09:06:28;;;;;;;3.73;1.30;;;9.20;99.90;;;;;;7387626;19;20155;-74
2023/01/14 09:17:29;;;;;;;4.07;1.40;;;9.40;99.90;;;;;;7384735;19;20209;-77
2023/01/14 09:20:01;;;;;;;4.80;1.53;;;9.50;99.90;;;;;;7387722;19;20155;-78
2023/01/14 09:22:29;;;;;;;6.20;2.27;;;9.60;99.90;;;;;;7383631;19;20182;-76
2023/01/14 09:24:56;;;;;;;4.17;1.70;;;9.70;99.90;;;;;;7382384;19;20153;-77
2023/01/14 09:27:22;;;;;;;4.40;1.27;;;9.60;99.90;;;;;;7386429;19;20616;-76
2023/01/14 09:29:48;;;;;;;4.70;1.30;;;9.60;99.90;;;;;;7380471;19;20139;-76
2023/01/14 09:32:16;;;;;;;3.10;1.23;;;9.50;99.90;;;;;;7382473;19;20138;-77
2023/01/14 09:34:52;;;;;;;3.73;1.20;;;9.60;99.90;;;;;;7385232;19;20142;-75
2023/01/14 09:37:20;;;;;;;7.83;1.23;;;9.50;99.90;;;;;;7389449;19;20645;-77
2023/01/14 09:39:47;;;;;;;5.53;1.70;;;9.50;99.90;;;;;;7385281;19;20154;-76
2023/01/14 09:42:34;;;;;;;1.33;0.73;;;9.50;99.90;;;;;;7377665;19;20191;-75
2023/01/14 09:45:28;;;;;;;5.47;1.20;;;9.40;99.90;;;;;;7380482;19;20138;-75
2023/01/14 09:47:56;;;;;;;3.00;1.20;;;9.50;99.90;;;;;;7385451;19;20123;-76
2023/01/14 09:51:02;;;;;;;3.63;1.30;;;9.50;99.90;;;;;;7385825;19;20164;-75
2023/01/14 09:53:36;;;;;;;3.27;1.17;;;9.70;99.90;;;;;;7390428;19;20222;-76
2023/01/14 09:56:13;;;;;;;2.67;1.00;;;9.80;99.90;;;;;;7392041;19;20467;-77
2023/01/14 09:58:49;;;;;;;4.87;1.07;;;9.60;99.90;;;;;;7390427;19;20177;-76
2023/01/14 10:01:27;;;;;;;4.17;1.37;;;9.90;99.90;;;;;;7391764;19;20141;-77
2023/01/14 10:04:08;;;;;;;3.30;1.00;;;10.00;99.90;;;;;;7389692;19;20142;-78
2023/01/14 10:06:35;;;;;;;4.97;1.13;;;10.10;99.90;;;;;;7390773;19;20138;-76
2023/01/14 10:09:11;;;;;;;2.43;0.90;;;10.20;99.90;;;;;;7391524;19;20483;-76
2023/01/14 10:11:44;;;;;;;3.90;1.03;;;10.20;99.90;;;;;;7389353;19;20149;-77
2023/01/14 10:14:29;;;;;;;3.20;0.80;;;10.30;99.90;;;;;;7391733;19;20541;-77
2023/01/14 10:17:04;;;;;;;2.30;0.80;;;10.10;99.90;;;;;;7392416;19;20127;-77
2023/01/14 10:19:50;;;;;;;4.70;1.13;;;10.20;99.90;;;;;;7390197;19;20681;-76
2023/01/14 10:22:44;;;;;;;3.60;1.00;;;10.30;99.90;;;;;;7390076;19;20134;-77
2023/01/14 10:25:20;;;;;;;3.90;1.00;;;10.20;99.90;;;;;;7389983;19;20147;-78
2023/01/14 10:27:52;;;;;;;3.07;0.97;;;10.30;99.90;;;;;;7387664;19;20150;-77
2023/01/14 10:30:22;;;;;;;4.43;0.90;;;10.30;99.90;;;;;;7390278;19;20150;-78
2023/01/14 10:32:50;;;;;;;3.43;1.30;;;10.40;99.90;;;;;;7391350;19;20161;-77
2023/01/14 10:35:26;;;;;;;3.20;1.03;;;10.20;99.90;;;;;;7389092;19;20255;-77
2023/01/14 10:37:52;;;;;;;1.57;0.87;;;10.10;99.90;;;;;;7393420;19;20141;-78
2023/01/14 10:40:23;;;;;;;1.90;0.80;;;10.10;99.90;;;;;;7391077;19;20154;-76
2023/01/14 10:42:51;;;;;;;2.27;0.73;;;10.00;99.90;;;;;;7390268;19;20139;-75
2023/01/14 10:45:17;;;;;;;2.40;0.80;;;10.20;99.90;;;;;;7389388;19;20153;-75
2023/01/14 10:47:45;;;;;;;2.10;1.20;;;10.20;99.90;;;;;;7389285;19;20545;-75
2023/01/14 10:50:16;;;;;;;4.23;0.77;;;10.20;99.90;;;;;;7389740;19;20143;-73
2023/01/14 10:52:43;;;;;;;3.60;0.80;;;10.30;99.90;;;;;;7388832;19;20214;-78
2023/01/14 10:55:13;;;;;;;2.50;0.80;;;10.40;99.90;;;;;;7388346;19;20154;-77
2023/01/14 10:57:47;;;;;;;3.23;0.80;;;10.50;99.90;;;;;;7390977;19;20146;-79
2023/01/14 11:00:33;;;;;;;1.43;0.80;;;10.50;99.90;;;;;;7390294;19;20153;-78
2023/01/14 11:03:03;;;;;;;1.87;0.87;;;10.60;99.90;;;;;;7389061;19;20161;-79
2023/01/14 11:05:31;;;;;;;1.83;0.80;;;10.60;99.90;;;;;;7389299;19;20618;-79
2023/01/14 11:08:01;;;;;;;1.73;0.70;;;10.50;99.90;;;;;;7386995;19;20218;-78
2023/01/14 11:10:31;;;;;;;1.63;0.87;;;10.30;99.90;;;;;;7389498;19;20165;-78
2023/01/14 11:13:48;;;;;;;1.43;0.70;;;10.40;99.90;;;;;;7387285;19;20171;-79
2023/01/14 11:16:36;;;;;;;0.63;0.63;;;10.50;99.90;;;;;;7388945;19;20142;-79
2023/01/14 11:19:20;;;;;;;3.20;1.10;;;10.50;99.90;;;;;;7386994;19;20274;-78
2023/01/14 11:21:58;;;;;;;4.17;1.23;;;10.60;99.90;;;;;;7387949;19;20158;-77
2023/01/14 11:24:36;;;;;;;1.10;0.80;;;10.60;99.90;;;;;;7384894;19;20142;-78
2023/01/14 11:27:05;;;;;;;0.90;0.60;;;10.60;99.90;;;;;;7384339;19;20592;-78
2023/01/14 11:29:35;;;;;;;2.47;0.70;;;10.50;99.90;;;;;;7389523;19;20141;-78
2023/01/14 11:32:11;;;;;;;4.80;0.83;;;10.60;99.90;;;;;;7391792;19;20595;-77
2023/01/14 11:34:47;;;;;;;2.63;0.63;;;10.50;99.90;;;;;;7394369;19;20149;-79
2023/01/14 11:37:19;;;;;;;1.97;0.90;;;10.50;99.90;;;;;;7394338;19;20142;-79
2023/01/14 11:39:52;;;;;;;1.63;0.60;;;10.60;99.90;;;;;;7394170;19;20135;-81
2023/01/14 11:42:27;;;;;;;1.63;0.97;;;10.60;99.90;;;;;;7393007;19;20320;-80
2023/01/14 11:45:03;;;;;;;2.20;1.00;;;10.70;99.90;;;;;;7394108;19;20157;-80
2023/01/14 11:47:30;;;;;;;2.70;0.90;;;10.90;99.90;;;;;;7390563;19;20134;-82
2023/01/14 11:50:21;;;;;;;3.93;0.90;;;10.90;99.90;;;;;;7394477;19;20130;-80
2023/01/14 11:53:15;;;;;;;1.80;0.97;;;10.90;99.90;;;;;;7393131;19;20142;-76
2023/01/14 11:55:44;;;;;;;2.37;0.60;;;10.90;99.90;;;;;;7396787;19;20615;-73
2023/01/14 11:58:15;;;;;;;1.70;0.70;;;10.80;99.90;;;;;;7395683;19;20139;-72
2023/01/14 12:01:04;;;;;;;1.50;0.90;;;10.70;99.90;;;;;;7398857;19;20610;-73
2023/01/14 12:03:34;;;;;;;2.87;1.20;;;10.70;99.90;;;;;;7388940;19;20562;-72
2023/01/14 12:06:05;;;;;;;2.23;0.90;;;10.60;99.90;;;;;;7394911;19;20131;-74
2023/01/14 12:08:34;;;;;;;1.13;0.90;;;10.50;99.90;;;;;;7393401;19;20205;-73
2023/01/14 12:11:03;;;;;;;1.30;0.90;;;10.70;99.90;;;;;;7393819;19;20614;-73
2023/01/14 12:16:52;;;;;;;1.97;1.10;;;10.60;99.90;;;;;;7392785;19;20130;-73
2023/01/14 12:19:23;;;;;;;2.43;1.20;;;10.50;99.90;;;;;;7393585;19;20122;-73
2023/01/14 12:22:16;;;;;;;1.43;0.73;;;10.70;99.90;;;;;;7393328;19;20774;-74
2023/01/14 12:24:49;;;;;;;2.10;0.97;;;10.70;99.90;;;;;;7390793;19;20225;-73
2023/01/14 12:27:43;;;;;;;2.90;0.90;;;10.70;99.90;;;;;;7389166;19;20138;-73
2023/01/14 12:30:15;;;;;;;2.67;0.90;;;10.70;99.90;;;;;;7392490;19;20158;-72
2023/01/14 12:32:46;;;;;;;2.50;1.20;;;10.80;99.90;;;;;;7389176;19;20170;-75
2023/01/14 12:35:18;;;;;;;1.10;0.87;;;10.80;99.90;;;;;;7390560;19;20165;-75
2023/01/14 12:37:57;;;;;;;1.93;0.83;;;10.80;99.90;;;;;;7393821;19;20451;-76
2023/01/14 12:46:12;;;;;;;2.33;1.00;;;10.80;99.90;;;;;;7391682;19;20603;-76
2023/01/14 12:48:39;;;;;;;1.70;0.90;;;10.80;99.90;;;;;;7390028;19;20642;-76
2023/01/14 12:51:19;;;;;;;1.93;0.90;;;10.80;99.90;;;;;;7391641;19;20211;-77
2023/01/14 12:54:01;;;;;;;1.07;0.67;;;10.90;99.90;;;;;;7392116;19;20502;-76
2023/01/14 12:56:39;;;;;;;0.70;0.60;;;10.90;99.90;;;;;;7391748;19;20779;-77
2023/01/14 12:59:17;;;;;;;3.17;0.70;;;11.00;99.90;;;;;;7389533;19;20619;-76
2023/01/14 13:02:11;;;;;;;0.80;0.63;;;11.10;99.90;;;;;;7392964;19;20167;-76
2023/01/14 13:05:12;;;;;;;1.83;0.90;;;10.90;99.90;;;;;;7390648;19;20150;-76
2023/01/14 13:07:53;;;;;;;1.80;1.00;;;11.00;99.90;;;;;;7390937;19;20470;-74
2023/01/14 13:10:35;;;;;;;1.43;1.10;;;10.90;99.90;;;;;;7389684;19;20141;-76
2023/01/14 13:13:02;;;;;;;2.20;1.07;;;10.80;99.90;;;;;;7390557;19;20149;-76
2023/01/14 13:15:34;;;;;;;2.57;0.93;;;10.90;99.90;;;;;;7391079;19;20134;-77
2023/01/14 13:18:03;;;;;;;3.93;0.80;;;10.90;99.90;;;;;;7390789;19;20150;-77
2023/01/14 13:20:29;;;;;;;2.03;0.90;;;10.70;99.90;;;;;;7395004;19;20127;-77
2023/01/14 13:22:59;;;;;;;2.60;0.70;;;10.70;99.90;;;;;;7388787;19;20501;-77
2023/01/14 13:25:38;;;;;;;1.50;0.83;;;10.80;99.90;;;;;;7392491;19;20130;-79
2023/01/14 13:28:26;;;;;;;2.93;0.90;;;10.70;99.90;;;;;;7391660;19;20150;-79
2023/01/14 13:31:07;;;;;;;2.03;0.90;;;10.90;99.90;;;;;;7389219;19;20627;-78
2023/01/14 13:33:37;;;;;;;3.17;1.30;;;10.90;99.90;;;;;;7390530;19;20153;-77
2023/01/14 13:36:16;;;;;;;1.37;0.83;;;11.00;99.90;;;;;;7392342;19;20130;-77
2023/01/14 13:39:00;;;;;;;4.67;0.97;;;11.00;99.90;;;;;;7393130;19;20206;-77
2023/01/14 13:41:32;;;;;;;2.00;0.90;;;11.10;99.90;;;;;;7391707;19;20142;-77
2023/01/14 13:43:59;;;;;;;1.83;0.83;;;10.90;99.90;;;;;;7390934;19;20650;-77
2023/01/14 13:46:35;;;;;;;1.80;0.90;;;11.00;99.90;;;;;;7390312;19;20135;-78
2023/01/14 13:49:05;;;;;;;2.00;0.83;;;11.00;99.90;;;;;;7390058;19;20130;-77
2023/01/14 13:51:41;;;;;;;4.60;1.10;;;11.10;99.90;;;;;;7391385;19;20127;-76